sensor_id;sensor_type;location;lat;lon;timestamp;pressure;altitude;pressure_sealevel;temperature;humidity
59170;BME280;52474;52.236;5.114;2023-10-08T00:01:28;102349.34;;;17.23;100.00
59170;BME280;52474;52.236;5.114;2023-10-08T00:03:54;102351.06;;;17.14;100.00
59170;BME280;52474;52.236;5.114;2023-10-08T00:06:24;102362.47;;;17.16;100.00
59170;BME280;52474;52.236;5.114;2023-10-08T00:08:50;102344.56;;;17.16;100.00
59170;BME280;52474;52.236;5.114;2023-10-08T00:11:17;102336.66;;;17.15;100.00
59170;BME280;52474;52.236;5.114;2023-10-08T00:13:43;102331.47;;;17.13;100.00
59170;BME280;52474;52.236;5.114;2023-10-08T00:16:11;102334.84;;;17.06;100.00
59170;BME280;52474;52.236;5.114;2023-10-08T00:18:41;102316.75;;;16.98;100.00
59170;BME280;52474;52.236;5.114;2023-10-08T00:21:15;102319.91;;;17.03;100.00
59170;BME280;52474;52.236;5.114;2023-10-08T00:23:40;102320.88;;;17.02;100.00
59170;BME280;52474;52.236;5.114;2023-10-08T00:26:10;102323.22;;;16.95;100.00
59170;BME280;52474;52.236;5.114;2023-10-08T00:28:38;102293.22;;;16.82;100.00
59170;BME280;52474;52.236;5.114;2023-10-08T00:31:05;102315.06;;;16.87;100.00
59170;BME280;52474;52.236;5.114;2023-10-08T00:33:36;102308.72;;;16.79;100.00
59170;BME280;52474;52.236;5.114;2023-10-08T00:36:02;102319.44;;;16.88;100.00
59170;BME280;52474;52.236;5.114;2023-10-08T00:38:43;102292.22;;;16.83;100.00
59170;BME280;52474;52.236;5.114;2023-10-08T00:41:17;102300.97;;;16.85;100.00
59170;BME280;52474;52.236;5.114;2023-10-08T00:43:49;102290.19;;;16.75;100.00
59170;BME280;52474;52.236;5.114;2023-10-08T00:46:17;102284.72;;;16.77;100.00
59170;BME280;52474;52.236;5.114;2023-10-08T00:48:57;102280.50;;;16.74;100.00
59170;BME280;52474;52.236;5.114;2023-10-08T00:51:27;102294.16;;;16.71;100.00
59170;BME280;52474;52.236;5.114;2023-10-08T00:54:01;102268.03;;;16.54;100.00
59170;BME280;52474;52.236;5.114;2023-10-08T00:56:45;102269.16;;;16.61;100.00
59170;BME280;52474;52.236;5.114;2023-10-08T00:59:15;102288.75;;;16.62;100.00
59170;BME280;52474;52.236;5.114;2023-10-08T01:01:45;102284.66;;;16.58;100.00
59170;BME280;52474;52.236;5.114;2023-10-08T01:04:16;102292.94;;;16.55;100.00
59170;BME280;52474;52.236;5.114;2023-10-08T01:06:42;102281.81;;;16.49;100.00
59170;BME280;52474;52.236;5.114;2023-10-08T01:09:07;102288.44;;;16.55;100.00
59170;BME280;52474;52.236;5.114;2023-10-08T01:11:44;102265.44;;;16.43;100.00
59170;BME280;52474;52.236;5.114;2023-10-08T01:14:16;102287.88;;;16.51;100.00
59170;BME280;52474;52.236;5.114;2023-10-08T01:16:47;102286.16;;;16.50;100.00
59170;BME280;52474;52.236;5.114;2023-10-08T01:19:18;102288.00;;;16.50;100.00
59170;BME280;52474;52.236;5.114;2023-10-08T01:21:45;102288.97;;;16.39;100.00
59170;BME280;52474;52.236;5.114;2023-10-08T01:24:10;102308.13;;;16.44;100.00
59170;BME280;52474;52.236;5.114;2023-10-08T01:26:42;102312.59;;;16.44;100.00
59170;BME280;52474;52.236;5.114;2023-10-08T01:29:11;102320.22;;;16.48;100.00
59170;BME280;52474;52.236;5.114;2023-10-08T01:31:47;102301.59;;;16.37;100.00
59170;BME280;52474;52.236;5.114;2023-10-08T01:34:18;102323.16;;;16.45;100.00
59170;BME280;52474;52.236;5.114;2023-10-08T01:36:52;102333.88;;;16.45;100.00
59170;BME280;52474;52.236;5.114;2023-10-08T01:39:17;102337.25;;;16.47;100.00
59170;BME280;52474;52.236;5.114;2023-10-08T01:41:44;102333.59;;;16.48;100.00
59170;BME280;52474;52.236;5.114;2023-10-08T01:44:10;102331.97;;;16.36;100.00
59170;BME280;52474;52.236;5.114;2023-10-08T01:46:36;102332.31;;;16.43;100.00
59170;BME280;52474;52.236;5.114;2023-10-08T01:49:02;102350.06;;;16.53;100.00
59170;BME280;52474;52.236;5.114;2023-10-08T01:51:38;102369.19;;;16.49;100.00
59170;BME280;52474;52.236;5.114;2023-10-08T01:54:09;102373.59;;;16.50;100.00
59170;BME280;52474;52.236;5.114;2023-10-08T01:56:38;102362.72;;;16.42;100.00
59170;BME280;52474;52.236;5.114;2023-10-08T01:59:10;102352.84;;;16.42;100.00
59170;BME280;52474;52.236;5.114;2023-10-08T02:01:37;102370.91;;;16.50;100.00
59170;BME280;52474;52.236;5.114;2023-10-08T02:04:05;102364.84;;;16.48;100.00
59170;BME280;52474;52.236;5.114;2023-10-08T02:06:35;102374.53;;;16.49;100.00
59170;BME280;52474;52.236;5.114;2023-10-08T02:09:01;102370.06;;;16.49;100.00
59170;BME280;52474;52.236;5.114;2023-10-08T02:11:47;102340.00;;;16.36;100.00
59170;BME280;52474;52.236;5.114;2023-10-08T02:14:19;102336.25;;;16.48;100.00
59170;BME280;52474;52.236;5.114;2023-10-08T02:16:46;102367.63;;;16.46;100.00
59170;BME280;52474;52.236;5.114;2023-10-08T02:19:13;102355.38;;;16.44;100.00
59170;BME280;52474;52.236;5.114;2023-10-08T02:21:40;102369.03;;;16.41;100.00
59170;BME280;52474;52.236;5.114;2023-10-08T02:24:06;102379.00;;;16.39;100.00
59170;BME280;52474;52.236;5.114;2023-10-08T02:26:33;102357.47;;;16.40;100.00
59170;BME280;52474;52.236;5.114;2023-10-08T02:29:09;102349.19;;;16.43;100.00
59170;BME280;52474;52.236;5.114;2023-10-08T02:31:38;102351.41;;;16.38;100.00
59170;BME280;52474;52.236;5.114;2023-10-08T02:34:07;102349.97;;;16.34;100.00
59170;BME280;52474;52.236;5.114;2023-10-08T02:36:36;102300.50;;;16.19;100.00
59170;BME280;52474;52.236;5.114;2023-10-08T02:39:03;102326.78;;;16.35;100.00
59170;BME280;52474;52.236;5.114;2023-10-08T02:41:41;102397.25;;;16.34;100.00
59170;BME280;52474;52.236;5.114;2023-10-08T02:44:13;102362.38;;;16.35;100.00
59170;BME280;52474;52.236;5.114;2023-10-08T02:46:46;102375.31;;;16.30;100.00
59170;BME280;52474;52.236;5.114;2023-10-08T02:49:16;102388.66;;;16.30;100.00
59170;BME280;52474;52.236;5.114;2023-10-08T02:51:47;102365.19;;;16.34;100.00
59170;BME280;52474;52.236;5.114;2023-10-08T02:54:16;102353.38;;;16.36;100.00
59170;BME280;52474;52.236;5.114;2023-10-08T02:56:48;102366.75;;;16.36;100.00
59170;BME280;52474;52.236;5.114;2023-10-08T02:59:17;102375.94;;;16.43;100.00
59170;BME280;52474;52.236;5.114;2023-10-08T03:01:43;102362.72;;;16.42;100.00
59170;BME280;52474;52.236;5.114;2023-10-08T03:04:09;102364.06;;;16.36;100.00
59170;BME280;52474;52.236;5.114;2023-10-08T03:06:45;102361.38;;;16.36;100.00
59170;BME280;52474;52.236;5.114;2023-10-08T03:09:21;102354.31;;;16.25;100.00
59170;BME280;52474;52.236;5.114;2023-10-08T03:11:50;102373.59;;;16.29;100.00
59170;BME280;52474;52.236;5.114;2023-10-08T03:14:17;102370.78;;;16.30;100.00
59170;BME280;52474;52.236;5.114;2023-10-08T03:16:54;102353.91;;;16.30;100.00
59170;BME280;52474;52.236;5.114;2023-10-08T03:19:29;102343.50;;;16.27;100.00
59170;BME280;52474;52.236;5.114;2023-10-08T03:21:55;102361.72;;;16.22;100.00
59170;BME280;52474;52.236;5.114;2023-10-08T03:24:22;102375.97;;;16.22;100.00
59170;BME280;52474;52.236;5.114;2023-10-08T03:27:01;102387.50;;;16.23;100.00
59170;BME280;52474;52.236;5.114;2023-10-08T03:29:38;102411.94;;;16.18;100.00
59170;BME280;52474;52.236;5.114;2023-10-08T03:32:09;102404.69;;;16.09;100.00
59170;BME280;52474;52.236;5.114;2023-10-08T03:34:46;102416.69;;;16.15;100.00
59170;BME280;52474;52.236;5.114;2023-10-08T03:37:22;102396.34;;;16.02;100.00
59170;BME280;52474;52.236;5.114;2023-10-08T03:40:07;102394.13;;;16.07;100.00
59170;BME280;52474;52.236;5.114;2023-10-08T03:42:50;102397.69;;;15.97;100.00
59170;BME280;52474;52.236;5.114;2023-10-08T03:45:16;102416.84;;;16.02;100.00
59170;BME280;52474;52.236;5.114;2023-10-08T03:48:02;102425.75;;;16.02;100.00
59170;BME280;52474;52.236;5.114;2023-10-08T03:50:32;102426.84;;;16.00;100.00
59170;BME280;52474;52.236;5.114;2023-10-08T03:53:07;102425.97;;;15.99;100.00
59170;BME280;52474;52.236;5.114;2023-10-08T03:55:39;102423.09;;;15.91;100.00
59170;BME280;52474;52.236;5.114;2023-10-08T03:58:08;102438.56;;;15.87;100.00
59170;BME280;52474;52.236;5.114;2023-10-08T04:00:39;102463.31;;;15.89;100.00
59170;BME280;52474;52.236;5.114;2023-10-08T04:03:08;102471.66;;;15.96;100.00
59170;BME280;52474;52.236;5.114;2023-10-08T04:05:37;102483.09;;;15.98;100.00
59170;BME280;52474;52.236;5.114;2023-10-08T04:08:21;102477.28;;;15.93;100.00
59170;BME280;52474;52.236;5.114;2023-10-08T04:11:05;102482.53;;;15.83;100.00
59170;BME280;52474;52.236;5.114;2023-10-08T04:13:34;102480.00;;;15.71;100.00
59170;BME280;52474;52.236;5.114;2023-10-08T04:16:04;102468.69;;;15.67;100.00
59170;BME280;52474;52.236;5.114;2023-10-08T04:18:31;102454.53;;;15.44;100.00
59170;BME280;52474;52.236;5.114;2023-10-08T04:20:58;102482.94;;;15.34;100.00
59170;BME280;52474;52.236;5.114;2023-10-08T04:23:30;102472.59;;;15.18;100.00
59170;BME280;52474;52.236;5.114;2023-10-08T04:25:56;102466.81;;;15.01;100.00
59170;BME280;52474;52.236;5.114;2023-10-08T04:28:22;102433.31;;;14.86;100.00
59170;BME280;52474;52.236;5.114;2023-10-08T04:30:52;102444.09;;;14.96;100.00
59170;BME280;52474;52.236;5.114;2023-10-08T04:33:18;102437.91;;;14.95;100.00
59170;BME280;52474;52.236;5.114;2023-10-08T04:35:46;102431.63;;;14.85;100.00
59170;BME280;52474;52.236;5.114;2023-10-08T04:38:24;102425.06;;;14.78;100.00
59170;BME280;52474;52.236;5.114;2023-10-08T04:41:02;102447.13;;;14.91;100.00
59170;BME280;52474;52.236;5.114;2023-10-08T04:43:34;102471.88;;;14.93;100.00
59170;BME280;52474;52.236;5.114;2023-10-08T04:46:03;102467.13;;;14.74;100.00
59170;BME280;52474;52.236;5.114;2023-10-08T04:48:46;102488.47;;;14.74;100.00
59170;BME280;52474;52.236;5.114;2023-10-08T04:51:12;102491.84;;;14.76;100.00
59170;BME280;52474;52.236;5.114;2023-10-08T04:53:38;102490.00;;;14.66;100.00
59170;BME280;52474;52.236;5.114;2023-10-08T04:56:08;102489.91;;;14.67;100.00
59170;BME280;52474;52.236;5.114;2023-10-08T04:58:49;102484.28;;;14.59;100.00
59170;BME280;52474;52.236;5.114;2023-10-08T05:01:17;102469.81;;;14.50;100.00
59170;BME280;52474;52.236;5.114;2023-10-08T05:03:48;102466.78;;;14.44;100.00
59170;BME280;52474;52.236;5.114;2023-10-08T05:06:28;102486.91;;;14.48;100.00
59170;BME280;52474;52.236;5.114;2023-10-08T05:09:09;102496.84;;;14.46;100.00
59170;BME280;52474;52.236;5.114;2023-10-08T05:11:52;102495.34;;;14.42;100.00
59170;BME280;52474;52.236;5.114;2023-10-08T05:14:22;102485.50;;;14.31;100.00
59170;BME280;52474;52.236;5.114;2023-10-08T05:17:04;102513.50;;;14.36;100.00
59170;BME280;52474;52.236;5.114;2023-10-08T05:19:37;102518.09;;;14.34;100.00
59170;BME280;52474;52.236;5.114;2023-10-08T05:22:17;102516.50;;;14.32;100.00
59170;BME280;52474;52.236;5.114;2023-10-08T05:24:48;102493.34;;;14.21;100.00
59170;BME280;52474;52.236;5.114;2023-10-08T05:27:37;102514.72;;;14.32;100.00
59170;BME280;52474;52.236;5.114;2023-10-08T05:30:22;102520.84;;;14.22;100.00
59170;BME280;52474;52.236;5.114;2023-10-08T05:32:57;102485.34;;;13.97;100.00
59170;BME280;52474;52.236;5.114;2023-10-08T05:35:30;102498.66;;;13.97;100.00
59170;BME280;52474;52.236;5.114;2023-10-08T05:38:18;102531.88;;;14.04;100.00
59170;BME280;52474;52.236;5.114;2023-10-08T05:40:57;102539.78;;;13.93;100.00
59170;BME280;52474;52.236;5.114;2023-10-08T05:46:07;102559.50;;;13.90;100.00
59170;BME280;52474;52.236;5.114;2023-10-08T05:51:35;102514.09;;;13.68;100.00
59170;BME280;52474;52.236;5.114;2023-10-08T05:54:21;102524.19;;;13.75;100.00
59170;BME280;52474;52.236;5.114;2023-10-08T05:56:54;102515.13;;;13.78;100.00
59170;BME280;52474;52.236;5.114;2023-10-08T05:59:42;102529.41;;;13.77;100.00
59170;BME280;52474;52.236;5.114;2023-10-08T06:02:27;102520.72;;;13.62;100.00
59170;BME280;52474;52.236;5.114;2023-10-08T06:05:06;102558.81;;;13.75;100.00
59170;BME280;52474;52.236;5.114;2023-10-08T06:07:50;102554.78;;;13.70;100.00
59170;BME280;52474;52.236;5.114;2023-10-08T06:10:27;102551.59;;;13.65;100.00
59170;BME280;52474;52.236;5.114;2023-10-08T06:13:03;102573.53;;;13.68;100.00
59170;BME280;52474;52.236;5.114;2023-10-08T06:15:39;102570.22;;;13.65;100.00
59170;BME280;52474;52.236;5.114;2023-10-08T06:20:41;102577.91;;;13.57;100.00
59170;BME280;52474;52.236;5.114;2023-10-08T06:23:11;102577.25;;;13.66;100.00
59170;BME280;52474;52.236;5.114;2023-10-08T06:25:39;102564.41;;;13.47;100.00
59170;BME280;52474;52.236;5.114;2023-10-08T06:28:15;102576.06;;;13.70;100.00
59170;BME280;52474;52.236;5.114;2023-10-08T06:30:44;102576.06;;;13.70;100.00
59170;BME280;52474;52.236;5.114;2023-10-08T06:33:10;102554.56;;;13.60;100.00
59170;BME280;52474;52.236;5.114;2023-10-08T06:35:36;102571.91;;;13.66;100.00
59170;BME280;52474;52.236;5.114;2023-10-08T06:38:02;102590.38;;;13.69;100.00
59170;BME280;52474;52.236;5.114;2023-10-08T06:40:35;102557.78;;;13.52;100.00
59170;BME280;52474;52.236;5.114;2023-10-08T06:43:05;102580.97;;;13.63;100.00
59170;BME280;52474;52.236;5.114;2023-10-08T06:45:50;102597.81;;;13.77;100.00
59170;BME280;52474;52.236;5.114;2023-10-08T06:48:21;102594.81;;;13.81;100.00
59170;BME280;52474;52.236;5.114;2023-10-08T06:50:48;102563.09;;;13.65;100.00
59170;BME280;52474;52.236;5.114;2023-10-08T06:53:15;102567.78;;;13.62;100.00
59170;BME280;52474;52.236;5.114;2023-10-08T06:55:44;102604.06;;;13.88;100.00
59170;BME280;52474;52.236;5.114;2023-10-08T06:58:10;102613.97;;;13.86;100.00
59170;BME280;52474;52.236;5.114;2023-10-08T07:00:40;102594.81;;;13.81;100.00
59170;BME280;52474;52.236;5.114;2023-10-08T07:03:13;102578.66;;;13.71;100.00
59170;BME280;52474;52.236;5.114;2023-10-08T07:05:47;102603.19;;;14.01;100.00
59170;BME280;52474;52.236;5.114;2023-10-08T07:08:23;102610.13;;;14.03;100.00
59170;BME280;52474;52.236;5.114;2023-10-08T07:10:53;102605.31;;;14.08;100.00
59170;BME280;52474;52.236;5.114;2023-10-08T07:13:22;102610.91;;;14.16;100.00
59170;BME280;52474;52.236;5.114;2023-10-08T07:15:52;102620.59;;;14.17;100.00
59170;BME280;52474;52.236;5.114;2023-10-08T07:18:18;102615.28;;;14.17;100.00
59170;BME280;52474;52.236;5.114;2023-10-08T07:20:51;102600.44;;;14.26;100.00
59170;BME280;52474;52.236;5.114;2023-10-08T07:23:21;102593.25;;;14.39;100.00
59170;BME280;52474;52.236;5.114;2023-10-08T07:26:01;102590.09;;;14.58;100.00
59170;BME280;52474;52.236;5.114;2023-10-08T07:28:45;102602.09;;;14.64;100.00
59170;BME280;52474;52.236;5.114;2023-10-08T07:31:15;102583.09;;;14.45;100.00
59170;BME280;52474;52.236;5.114;2023-10-08T07:33:46;102603.13;;;14.50;100.00
59170;BME280;52474;52.236;5.114;2023-10-08T07:36:12;102603.88;;;14.52;100.00
59170;BME280;52474;52.236;5.114;2023-10-08T07:38:43;102609.44;;;14.73;100.00
59170;BME280;52474;52.236;5.114;2023-10-08T07:41:12;102618.47;;;14.59;100.00
59170;BME280;52474;52.236;5.114;2023-10-08T07:43:43;102608.03;;;14.56;100.00
59170;BME280;52474;52.236;5.114;2023-10-08T07:46:10;102641.41;;;14.62;100.00
59170;BME280;52474;52.236;5.114;2023-10-08T07:48:36;102652.91;;;14.63;100.00
59170;BME280;52474;52.236;5.114;2023-10-08T07:51:08;102650.75;;;14.68;100.00
59170;BME280;52474;52.236;5.114;2023-10-08T07:53:34;102640.53;;;14.86;100.00
59170;BME280;52474;52.236;5.114;2023-10-08T07:56:08;102650.03;;;15.01;100.00
59170;BME280;52474;52.236;5.114;2023-10-08T07:58:35;102645.25;;;15.17;100.00
59170;BME280;52474;52.236;5.114;2023-10-08T08:01:05;102641.38;;;15.21;100.00
59170;BME280;52474;52.236;5.114;2023-10-08T08:03:33;102650.88;;;15.37;100.00
59170;BME280;52474;52.236;5.114;2023-10-08T08:06:00;102647.97;;;15.40;100.00
59170;BME280;52474;52.236;5.114;2023-10-08T08:08:26;102627.09;;;14.98;100.00
59170;BME280;52474;52.236;5.114;2023-10-08T08:10:53;102630.66;;;14.99;100.00
59170;BME280;52474;52.236;5.114;2023-10-08T08:13:29;102656.31;;;15.24;100.00
59170;BME280;52474;52.236;5.114;2023-10-08T08:15:55;102659.34;;;15.31;100.00
59170;BME280;52474;52.236;5.114;2023-10-08T08:18:25;102657.31;;;15.45;100.00
59170;BME280;52474;52.236;5.114;2023-10-08T08:20:56;102667.81;;;15.82;100.00
59170;BME280;52474;52.236;5.114;2023-10-08T08:23:31;102680.69;;;15.77;100.00
59170;BME280;52474;52.236;5.114;2023-10-08T08:25:57;102688.03;;;15.62;100.00
59170;BME280;52474;52.236;5.114;2023-10-08T08:28:38;102682.28;;;15.80;100.00
59170;BME280;52474;52.236;5.114;2023-10-08T08:31:05;102695.88;;;15.99;100.00
59170;BME280;52474;52.236;5.114;2023-10-08T08:33:40;102689.44;;;16.02;100.00
59170;BME280;52474;52.236;5.114;2023-10-08T08:36:24;102685.81;;;16.03;100.00
59170;BME280;52474;52.236;5.114;2023-10-08T08:38:50;102692.84;;;16.15;100.00
59170;BME280;52474;52.236;5.114;2023-10-08T08:41:16;102708.75;;;16.28;100.00
59170;BME280;52474;52.236;5.114;2023-10-08T08:43:50;102689.31;;;16.37;100.00
59170;BME280;52474;52.236;5.114;2023-10-08T08:46:33;102703.06;;;16.87;100.00
59170;BME280;52474;52.236;5.114;2023-10-08T08:49:10;102699.69;;;17.38;100.00
59170;BME280;52474;52.236;5.114;2023-10-08T08:51:38;102691.03;;;17.35;100.00
59170;BME280;52474;52.236;5.114;2023-10-08T08:54:05;102697.50;;;17.32;100.00
59170;BME280;52474;52.236;5.114;2023-10-08T08:56:40;102675.59;;;17.69;100.00
59170;BME280;52474;52.236;5.114;2023-10-08T08:59:09;102676.19;;;18.34;100.00
59170;BME280;52474;52.236;5.114;2023-10-08T09:01:41;102680.69;;;22.29;100.00
59170;BME280;52474;52.236;5.114;2023-10-08T09:04:08;102673.84;;;24.99;100.00
59170;BME280;52474;52.236;5.114;2023-10-08T09:06:37;102667.03;;;25.26;100.00
59170;BME280;52474;52.236;5.114;2023-10-08T09:09:07;102642.53;;;26.66;100.00
59170;BME280;52474;52.236;5.114;2023-10-08T09:11:49;102668.81;;;25.48;100.00
59170;BME280;52474;52.236;5.114;2023-10-08T09:14:24;102671.09;;;25.75;100.00
59170;BME280;52474;52.236;5.114;2023-10-08T09:16:58;102675.59;;;26.33;100.00
59170;BME280;52474;52.236;5.114;2023-10-08T09:19:25;102652.56;;;27.37;100.00
59170;BME280;52474;52.236;5.114;2023-10-08T09:22:00;102667.41;;;27.13;100.00
59170;BME280;52474;52.236;5.114;2023-10-08T09:24:30;102668.31;;;24.69;100.00
59170;BME280;52474;52.236;5.114;2023-10-08T09:26:56;102682.56;;;22.02;100.00
59170;BME280;52474;52.236;5.114;2023-10-08T09:29:24;102706.41;;;20.75;100.00
59170;BME280;52474;52.236;5.114;2023-10-08T09:31:56;102702.91;;;19.82;100.00
59170;BME280;52474;52.236;5.114;2023-10-08T09:34:27;102682.97;;;19.65;100.00
59170;BME280;52474;52.236;5.114;2023-10-08T09:36:55;102694.41;;;19.86;100.00
59170;BME280;52474;52.236;5.114;2023-10-08T09:39:21;102681.41;;;19.82;100.00
59170;BME280;52474;52.236;5.114;2023-10-08T09:41:57;102672.34;;;20.10;100.00
59170;BME280;52474;52.236;5.114;2023-10-08T09:44:24;102687.22;;;20.05;100.00
59170;BME280;52474;52.236;5.114;2023-10-08T09:46:57;102670.25;;;20.04;100.00
59170;BME280;52474;52.236;5.114;2023-10-08T09:49:36;102685.78;;;20.66;100.00
59170;BME280;52474;52.236;5.114;2023-10-08T09:52:06;102686.72;;;20.92;100.00
59170;BME280;52474;52.236;5.114;2023-10-08T09:54:44;102689.59;;;21.35;100.00
59170;BME280;52474;52.236;5.114;2023-10-08T09:57:11;102673.22;;;20.56;100.00
59170;BME280;52474;52.236;5.114;2023-10-08T09:59:37;102690.88;;;20.41;100.00
59170;BME280;52474;52.236;5.114;2023-10-08T10:02:06;102682.41;;;20.82;100.00
59170;BME280;52474;52.236;5.114;2023-10-08T10:04:35;102682.25;;;20.65;100.00
59170;BME280;52474;52.236;5.114;2023-10-08T10:07:09;102675.09;;;20.56;100.00
59170;BME280;52474;52.236;5.114;2023-10-08T10:09:38;102671.19;;;19.19;100.00
59170;BME280;52474;52.236;5.114;2023-10-08T10:12:05;102668.41;;;19.58;100.00
59170;BME280;52474;52.236;5.114;2023-10-08T10:14:46;102659.88;;;20.37;100.00
59170;BME280;52474;52.236;5.114;2023-10-08T10:17:13;102670.63;;;20.65;100.00
59170;BME280;52474;52.236;5.114;2023-10-08T10:19:41;102676.63;;;20.76;100.00
59170;BME280;52474;52.236;5.114;2023-10-08T10:22:14;102681.03;;;21.21;100.00
59170;BME280;52474;52.236;5.114;2023-10-08T10:24:42;102656.78;;;20.95;100.00
59170;BME280;52474;52.236;5.114;2023-10-08T10:27:15;102671.66;;;20.54;100.00
59170;BME280;52474;52.236;5.114;2023-10-08T10:29:42;102692.38;;;19.88;100.00
59170;BME280;52474;52.236;5.114;2023-10-08T10:32:13;102676.50;;;19.67;100.00
59170;BME280;52474;52.236;5.114;2023-10-08T10:34:45;102708.25;;;20.19;100.00
59170;BME280;52474;52.236;5.114;2023-10-08T10:37:18;102700.25;;;20.09;100.00
59170;BME280;52474;52.236;5.114;2023-10-08T10:39:55;102687.53;;;20.29;100.00
59170;BME280;52474;52.236;5.114;2023-10-08T10:42:24;102680.44;;;20.01;100.00
59170;BME280;52474;52.236;5.114;2023-10-08T10:44:52;102683.81;;;19.75;100.00
59170;BME280;52474;52.236;5.114;2023-10-08T10:47:19;102658.97;;;19.91;100.00
59170;BME280;52474;52.236;5.114;2023-10-08T10:49:50;102658.56;;;20.41;100.00
59170;BME280;52474;52.236;5.114;2023-10-08T10:55:22;102656.72;;;20.42;100.00
59170;BME280;52474;52.236;5.114;2023-10-08T10:57:57;102656.94;;;19.75;100.00
59170;BME280;52474;52.236;5.114;2023-10-08T11:00:30;102675.88;;;19.73;100.00
59170;BME280;52474;52.236;5.114;2023-10-08T11:03:00;102660.22;;;19.59;100.00
59170;BME280;52474;52.236;5.114;2023-10-08T11:05:34;102677.94;;;19.99;100.00
59170;BME280;52474;52.236;5.114;2023-10-08T11:08:05;102661.78;;;19.71;100.00
59170;BME280;52474;52.236;5.114;2023-10-08T11:10:37;102666.16;;;20.00;100.00
59170;BME280;52474;52.236;5.114;2023-10-08T11:13:18;102675.09;;;19.91;100.00
59170;BME280;52474;52.236;5.114;2023-10-08T11:15:48;102668.09;;;19.04;100.00
59170;BME280;52474;52.236;5.114;2023-10-08T11:18:17;102680.47;;;18.66;100.00
59170;BME280;52474;52.236;5.114;2023-10-08T11:20:43;102656.44;;;18.45;100.00
59170;BME280;52474;52.236;5.114;2023-10-08T11:23:36;102663.94;;;18.61;100.00
59170;BME280;52474;52.236;5.114;2023-10-08T11:26:04;102668.19;;;18.63;100.00
59170;BME280;52474;52.236;5.114;2023-10-08T11:28:31;102679.34;;;18.59;100.00
59170;BME280;52474;52.236;5.114;2023-10-08T11:31:03;102676.31;;;18.33;100.00
59170;BME280;52474;52.236;5.114;2023-10-08T11:33:37;102641.47;;;17.92;100.00
59170;BME280;52474;52.236;5.114;2023-10-08T11:36:05;102669.38;;;18.30;100.00
59170;BME280;52474;52.236;5.114;2023-10-08T11:39:08;102657.16;;;18.57;100.00
59170;BME280;52474;52.236;5.114;2023-10-08T11:41:34;102653.75;;;18.45;100.00
59170;BME280;52474;52.236;5.114;2023-10-08T11:44:17;102617.25;;;18.13;100.00
59170;BME280;52474;52.236;5.114;2023-10-08T11:46:45;102639.03;;;18.20;100.00
59170;BME280;52474;52.236;5.114;2023-10-08T11:49:17;102650.63;;;18.30;100.00
59170;BME280;52474;52.236;5.114;2023-10-08T11:51:44;102638.34;;;18.37;100.00
59170;BME280;52474;52.236;5.114;2023-10-08T11:54:13;102636.84;;;19.22;100.00
59170;BME280;52474;52.236;5.114;2023-10-08T11:56:40;102638.81;;;19.11;100.00
59170;BME280;52474;52.236;5.114;2023-10-08T11:59:06;102632.34;;;18.84;100.00
59170;BME280;52474;52.236;5.114;2023-10-08T12:01:36;102619.19;;;19.00;100.00
59170;BME280;52474;52.236;5.114;2023-10-08T12:04:03;102606.88;;;18.59;100.00
59170;BME280;52474;52.236;5.114;2023-10-08T12:06:29;102607.59;;;18.41;100.00
59170;BME280;52474;52.236;5.114;2023-10-08T12:08:56;102601.06;;;18.34;100.00
59170;BME280;52474;52.236;5.114;2023-10-08T12:11:27;102563.31;;;17.87;100.00
59170;BME280;52474;52.236;5.114;2023-10-08T12:13:57;102598.69;;;18.31;100.00
59170;BME280;52474;52.236;5.114;2023-10-08T12:16:26;102589.81;;;18.79;100.00
59170;BME280;52474;52.236;5.114;2023-10-08T12:18:56;102590.38;;;18.44;100.00
59170;BME280;52474;52.236;5.114;2023-10-08T12:21:28;102573.22;;;18.16;100.00
59170;BME280;52474;52.236;5.114;2023-10-08T12:23:57;102575.34;;;18.12;100.00
59170;BME280;52474;52.236;5.114;2023-10-08T12:26:23;102591.19;;;18.35;100.00
59170;BME280;52474;52.236;5.114;2023-10-08T12:28:49;102593.41;;;18.10;100.00
59170;BME280;52474;52.236;5.114;2023-10-08T12:31:16;102588.00;;;17.91;100.00
59170;BME280;52474;52.236;5.114;2023-10-08T12:33:42;102590.28;;;17.74;100.00
59170;BME280;52474;52.236;5.114;2023-10-08T12:36:11;102584.78;;;17.97;100.00
59170;BME280;52474;52.236;5.114;2023-10-08T12:38:41;102580.56;;;17.73;100.00
59170;BME280;52474;52.236;5.114;2023-10-08T12:41:08;102569.84;;;17.73;100.00
59170;BME280;52474;52.236;5.114;2023-10-08T12:43:38;102557.81;;;17.58;100.00
59170;BME280;52474;52.236;5.114;2023-10-08T12:46:04;102558.97;;;17.65;100.00
59170;BME280;52474;52.236;5.114;2023-10-08T12:48:37;102548.53;;;17.72;100.00
59170;BME280;52474;52.236;5.114;2023-10-08T12:51:03;102540.94;;;17.77;100.00
59170;BME280;52474;52.236;5.114;2023-10-08T12:53:32;102549.50;;;18.11;100.00
59170;BME280;52474;52.236;5.114;2023-10-08T12:56:09;102544.31;;;18.19;100.00
59170;BME280;52474;52.236;5.114;2023-10-08T12:58:42;102550.09;;;18.05;100.00
59170;BME280;52474;52.236;5.114;2023-10-08T13:01:14;102550.88;;;17.86;100.00
59170;BME280;52474;52.236;5.114;2023-10-08T13:03:46;102551.25;;;18.32;100.00
59170;BME280;52474;52.236;5.114;2023-10-08T13:06:17;102552.63;;;18.07;100.00
59170;BME280;52474;52.236;5.114;2023-10-08T13:08:55;102547.47;;;17.84;100.00
59170;BME280;52474;52.236;5.114;2023-10-08T13:11:22;102553.78;;;17.73;100.00
59170;BME280;52474;52.236;5.114;2023-10-08T13:13:49;102547.69;;;17.71;100.00